sensor_id;sensor_type;location;lat;lon;timestamp;temperature;humidity
26575;DHT22;67165;50.256;10.978;2024-02-26T00:01:55;1.40;98.00
26575;DHT22;67165;50.256;10.978;2024-02-26T00:04:21;1.30;98.00
26575;DHT22;67165;50.256;10.978;2024-02-26T00:06:47;1.20;98.00
26575;DHT22;67165;50.256;10.978;2024-02-26T00:09:15;1.30;98.00
26575;DHT22;67165;50.256;10.978;2024-02-26T00:11:44;1.40;98.00
26575;DHT22;67165;50.256;10.978;2024-02-26T00:14:13;1.40;98.00
26575;DHT22;67165;50.256;10.978;2024-02-26T00:16:42;1.70;98.00
26575;DHT22;67165;50.256;10.978;2024-02-26T00:19:08;2.00;98.00
26575;DHT22;67165;50.256;10.978;2024-02-26T00:21:34;2.10;98.00
26575;DHT22;67165;50.256;10.978;2024-02-26T00:24:00;2.30;98.00
26575;DHT22;67165;50.256;10.978;2024-02-26T00:26:28;2.40;98.00
26575;DHT22;67165;50.256;10.978;2024-02-26T00:28:57;2.30;98.00
26575;DHT22;67165;50.256;10.978;2024-02-26T00:31:25;2.10;98.00
26575;DHT22;67165;50.256;10.978;2024-02-26T00:33:51;2.10;98.00
26575;DHT22;67165;50.256;10.978;2024-02-26T00:36:26;2.10;98.00
26575;DHT22;67165;50.256;10.978;2024-02-26T00:38:51;2.20;98.00
26575;DHT22;67165;50.256;10.978;2024-02-26T00:41:20;2.10;98.00
26575;DHT22;67165;50.256;10.978;2024-02-26T00:43:51;2.00;98.00
26575;DHT22;67165;50.256;10.978;2024-02-26T00:46:16;2.10;98.00
26575;DHT22;67165;50.256;10.978;2024-02-26T00:48:42;2.00;98.00
26575;DHT22;67165;50.256;10.978;2024-02-26T00:51:10;1.90;98.00
26575;DHT22;67165;50.256;10.978;2024-02-26T00:53:39;1.70;98.00
26575;DHT22;67165;50.256;10.978;2024-02-26T00:56:05;1.60;98.00
26575;DHT22;67165;50.256;10.978;2024-02-26T00:58:31;1.50;98.00
26575;DHT22;67165;50.256;10.978;2024-02-26T01:00:56;1.40;98.00
26575;DHT22;67165;50.256;10.978;2024-02-26T01:03:25;1.30;98.00
26575;DHT22;67165;50.256;10.978;2024-02-26T01:05:53;1.30;98.00
26575;DHT22;67165;50.256;10.978;2024-02-26T01:08:19;1.30;98.00
26575;DHT22;67165;50.256;10.978;2024-02-26T01:10:45;1.20;98.00
26575;DHT22;67165;50.256;10.978;2024-02-26T01:13:11;1.20;98.00
26575;DHT22;67165;50.256;10.978;2024-02-26T01:15:42;1.10;98.00
26575;DHT22;67165;50.256;10.978;2024-02-26T01:18:11;1.10;98.00
26575;DHT22;67165;50.256;10.978;2024-02-26T01:20:37;1.00;98.00
26575;DHT22;67165;50.256;10.978;2024-02-26T01:23:03;1.00;98.00
26575;DHT22;67165;50.256;10.978;2024-02-26T01:25:31;1.00;98.00
26575;DHT22;67165;50.256;10.978;2024-02-26T01:27:57;0.90;98.00
26575;DHT22;67165;50.256;10.978;2024-02-26T01:30:23;0.90;98.00
26575;DHT22;67165;50.256;10.978;2024-02-26T01:32:56;0.90;98.00
26575;DHT22;67165;50.256;10.978;2024-02-26T01:35:22;0.90;98.00
26575;DHT22;67165;50.256;10.978;2024-02-26T01:37:48;0.80;98.00
26575;DHT22;67165;50.256;10.978;2024-02-26T01:40:14;0.80;98.00
26575;DHT22;67165;50.256;10.978;2024-02-26T01:42:45;0.80;98.00
26575;DHT22;67165;50.256;10.978;2024-02-26T01:45:16;0.70;98.00
26575;DHT22;67165;50.256;10.978;2024-02-26T01:47:49;0.70;98.00
26575;DHT22;67165;50.256;10.978;2024-02-26T01:50:15;0.70;98.00
26575;DHT22;67165;50.256;10.978;2024-02-26T01:52:49;0.70;98.00
26575;DHT22;67165;50.256;10.978;2024-02-26T01:55:17;0.70;98.00
26575;DHT22;67165;50.256;10.978;2024-02-26T01:57:45;0.70;98.00
26575;DHT22;67165;50.256;10.978;2024-02-26T02:00:12;0.70;98.00
26575;DHT22;67165;50.256;10.978;2024-02-26T02:02:39;0.60;98.00
26575;DHT22;67165;50.256;10.978;2024-02-26T02:05:11;0.50;98.00
26575;DHT22;67165;50.256;10.978;2024-02-26T02:07:40;0.40;98.00
26575;DHT22;67165;50.256;10.978;2024-02-26T02:10:06;0.40;98.00
26575;DHT22;67165;50.256;10.978;2024-02-26T02:12:38;0.40;98.00
26575;DHT22;67165;50.256;10.978;2024-02-26T02:15:05;0.40;98.00
26575;DHT22;67165;50.256;10.978;2024-02-26T02:17:31;0.40;98.00
26575;DHT22;67165;50.256;10.978;2024-02-26T02:19:57;0.40;98.00
26575;DHT22;67165;50.256;10.978;2024-02-26T02:22:23;0.50;98.00
26575;DHT22;67165;50.256;10.978;2024-02-26T02:24:51;0.50;98.00
26575;DHT22;67165;50.256;10.978;2024-02-26T02:27:17;0.60;98.00
26575;DHT22;67165;50.256;10.978;2024-02-26T02:29:51;0.60;98.00
26575;DHT22;67165;50.256;10.978;2024-02-26T02:32:18;0.60;98.00
26575;DHT22;67165;50.256;10.978;2024-02-26T02:34:45;0.60;98.00
26575;DHT22;67165;50.256;10.978;2024-02-26T02:37:16;0.60;98.00
26575;DHT22;67165;50.256;10.978;2024-02-26T02:39:44;0.60;98.00
26575;DHT22;67165;50.256;10.978;2024-02-26T02:42:10;0.70;98.00
26575;DHT22;67165;50.256;10.978;2024-02-26T02:44:36;0.70;98.00
26575;DHT22;67165;50.256;10.978;2024-02-26T02:47:04;0.70;98.00
26575;DHT22;67165;50.256;10.978;2024-02-26T02:49:30;0.70;98.00
26575;DHT22;67165;50.256;10.978;2024-02-26T02:51:56;0.60;98.00
26575;DHT22;67165;50.256;10.978;2024-02-26T02:54:23;0.70;98.00
26575;DHT22;67165;50.256;10.978;2024-02-26T02:56:49;0.70;98.00
26575;DHT22;67165;50.256;10.978;2024-02-26T02:59:20;0.70;98.00
26575;DHT22;67165;50.256;10.978;2024-02-26T03:01:46;0.80;98.00
26575;DHT22;67165;50.256;10.978;2024-02-26T03:04:15;0.80;98.00
26575;DHT22;67165;50.256;10.978;2024-02-26T03:06:41;0.80;98.00
26575;DHT22;67165;50.256;10.978;2024-02-26T03:09:07;0.80;98.00
26575;DHT22;67165;50.256;10.978;2024-02-26T03:11:33;0.80;98.00
26575;DHT22;67165;50.256;10.978;2024-02-26T03:13:59;0.90;98.00
26575;DHT22;67165;50.256;10.978;2024-02-26T03:16:24;1.00;98.00
26575;DHT22;67165;50.256;10.978;2024-02-26T03:18:50;1.20;98.00
26575;DHT22;67165;50.256;10.978;2024-02-26T03:21:18;1.30;98.00
26575;DHT22;67165;50.256;10.978;2024-02-26T03:23:46;1.40;98.00
26575;DHT22;67165;50.256;10.978;2024-02-26T03:26:12;1.40;98.00
26575;DHT22;67165;50.256;10.978;2024-02-26T03:28:40;1.50;98.00
26575;DHT22;67165;50.256;10.978;2024-02-26T03:31:06;1.50;98.00
26575;DHT22;67165;50.256;10.978;2024-02-26T03:33:31;1.40;98.00
26575;DHT22;67165;50.256;10.978;2024-02-26T03:35:57;1.40;98.00
26575;DHT22;67165;50.256;10.978;2024-02-26T03:38:23;1.30;98.00
26575;DHT22;67165;50.256;10.978;2024-02-26T03:40:49;1.20;98.00
26575;DHT22;67165;50.256;10.978;2024-02-26T03:43:16;1.20;98.00
26575;DHT22;67165;50.256;10.978;2024-02-26T03:45:44;1.30;98.00
26575;DHT22;67165;50.256;10.978;2024-02-26T03:48:10;1.40;98.00
26575;DHT22;67165;50.256;10.978;2024-02-26T03:50:36;1.50;98.00
26575;DHT22;67165;50.256;10.978;2024-02-26T03:53:02;1.50;98.00
26575;DHT22;67165;50.256;10.978;2024-02-26T03:55:28;1.60;98.00
26575;DHT22;67165;50.256;10.978;2024-02-26T03:57:56;1.60;98.00
26575;DHT22;67165;50.256;10.978;2024-02-26T04:00:22;1.60;98.00
26575;DHT22;67165;50.256;10.978;2024-02-26T04:02:48;1.70;98.00
26575;DHT22;67165;50.256;10.978;2024-02-26T04:05:15;1.70;98.00
26575;DHT22;67165;50.256;10.978;2024-02-26T04:07:41;1.80;98.00
26575;DHT22;67165;50.256;10.978;2024-02-26T04:10:13;2.00;98.00
26575;DHT22;67165;50.256;10.978;2024-02-26T04:12:42;2.10;98.00
26575;DHT22;67165;50.256;10.978;2024-02-26T04:15:09;2.20;98.00
26575;DHT22;67165;50.256;10.978;2024-02-26T04:17:38;2.20;98.00
26575;DHT22;67165;50.256;10.978;2024-02-26T04:20:12;2.30;98.00
26575;DHT22;67165;50.256;10.978;2024-02-26T04:22:38;2.40;98.00
26575;DHT22;67165;50.256;10.978;2024-02-26T04:25:04;2.50;98.00
26575;DHT22;67165;50.256;10.978;2024-02-26T04:27:30;2.70;98.00
26575;DHT22;67165;50.256;10.978;2024-02-26T04:29:55;2.80;98.00
26575;DHT22;67165;50.256;10.978;2024-02-26T04:32:21;2.90;98.00
26575;DHT22;67165;50.256;10.978;2024-02-26T04:34:47;2.90;98.00
26575;DHT22;67165;50.256;10.978;2024-02-26T04:37:13;3.00;98.00
26575;DHT22;67165;50.256;10.978;2024-02-26T04:39:39;3.00;98.00
26575;DHT22;67165;50.256;10.978;2024-02-26T04:42:05;3.00;98.00
26575;DHT22;67165;50.256;10.978;2024-02-26T04:44:30;3.10;98.00
26575;DHT22;67165;50.256;10.978;2024-02-26T04:46:56;3.10;98.00
26575;DHT22;67165;50.256;10.978;2024-02-26T04:49:22;3.10;98.00
26575;DHT22;67165;50.256;10.978;2024-02-26T04:51:48;3.10;98.00
26575;DHT22;67165;50.256;10.978;2024-02-26T04:54:13;3.20;98.00
26575;DHT22;67165;50.256;10.978;2024-02-26T04:56:39;3.20;98.00
26575;DHT22;67165;50.256;10.978;2024-02-26T04:59:05;3.20;98.00
26575;DHT22;67165;50.256;10.978;2024-02-26T05:01:31;3.20;98.00
26575;DHT22;67165;50.256;10.978;2024-02-26T05:03:56;3.20;98.00
26575;DHT22;67165;50.256;10.978;2024-02-26T05:06:22;3.20;98.00
26575;DHT22;67165;50.256;10.978;2024-02-26T05:08:53;3.20;98.00
26575;DHT22;67165;50.256;10.978;2024-02-26T05:11:21;3.10;98.00
26575;DHT22;67165;50.256;10.978;2024-02-26T05:13:50;3.00;98.00
26575;DHT22;67165;50.256;10.978;2024-02-26T05:16:16;3.00;98.00
26575;DHT22;67165;50.256;10.978;2024-02-26T05:18:42;3.00;98.00
26575;DHT22;67165;50.256;10.978;2024-02-26T05:21:10;2.90;98.00
26575;DHT22;67165;50.256;10.978;2024-02-26T05:23:36;2.80;98.00
26575;DHT22;67165;50.256;10.978;2024-02-26T05:26:01;2.70;98.00
26575;DHT22;67165;50.256;10.978;2024-02-26T05:28:27;2.70;98.00
26575;DHT22;67165;50.256;10.978;2024-02-26T05:30:56;2.80;98.00
26575;DHT22;67165;50.256;10.978;2024-02-26T05:33:21;2.80;98.00
26575;DHT22;67165;50.256;10.978;2024-02-26T05:35:48;2.90;98.00
26575;DHT22;67165;50.256;10.978;2024-02-26T05:38:14;2.90;98.00
26575;DHT22;67165;50.256;10.978;2024-02-26T05:40:40;3.00;98.00
26575;DHT22;67165;50.256;10.978;2024-02-26T05:43:06;2.90;98.00
26575;DHT22;67165;50.256;10.978;2024-02-26T05:45:31;3.00;98.00
26575;DHT22;67165;50.256;10.978;2024-02-26T05:47:58;3.00;98.00
26575;DHT22;67165;50.256;10.978;2024-02-26T05:50:24;3.10;98.00
26575;DHT22;67165;50.256;10.978;2024-02-26T05:52:52;3.20;98.00
26575;DHT22;67165;50.256;10.978;2024-02-26T05:55:18;3.30;98.00
26575;DHT22;67165;50.256;10.978;2024-02-26T05:57:46;3.30;98.00
26575;DHT22;67165;50.256;10.978;2024-02-26T06:00:13;3.30;98.00
26575;DHT22;67165;50.256;10.978;2024-02-26T06:02:39;3.30;98.00
26575;DHT22;67165;50.256;10.978;2024-02-26T06:05:05;3.40;98.00
26575;DHT22;67165;50.256;10.978;2024-02-26T06:07:32;3.40;98.00
26575;DHT22;67165;50.256;10.978;2024-02-26T06:09:58;3.40;98.00
26575;DHT22;67165;50.256;10.978;2024-02-26T06:12:24;3.40;98.00
26575;DHT22;67165;50.256;10.978;2024-02-26T06:14:49;3.50;98.00
26575;DHT22;67165;50.256;10.978;2024-02-26T06:17:15;3.50;98.00
26575;DHT22;67165;50.256;10.978;2024-02-26T06:19:41;3.50;98.00
26575;DHT22;67165;50.256;10.978;2024-02-26T06:22:07;3.50;98.00
26575;DHT22;67165;50.256;10.978;2024-02-26T06:24:33;3.50;98.00
26575;DHT22;67165;50.256;10.978;2024-02-26T06:26:59;3.60;98.00
26575;DHT22;67165;50.256;10.978;2024-02-26T06:29:24;3.60;98.00
26575;DHT22;67165;50.256;10.978;2024-02-26T06:31:50;3.70;98.00
26575;DHT22;67165;50.256;10.978;2024-02-26T06:34:16;3.70;98.00
26575;DHT22;67165;50.256;10.978;2024-02-26T06:36:42;3.70;98.00
26575;DHT22;67165;50.256;10.978;2024-02-26T06:39:07;3.70;98.00
26575;DHT22;67165;50.256;10.978;2024-02-26T06:41:33;3.70;98.00
26575;DHT22;67165;50.256;10.978;2024-02-26T06:43:59;3.70;98.00
26575;DHT22;67165;50.256;10.978;2024-02-26T06:46:25;3.80;98.00
26575;DHT22;67165;50.256;10.978;2024-02-26T06:48:54;3.90;98.00
26575;DHT22;67165;50.256;10.978;2024-02-26T06:51:22;3.90;98.00
26575;DHT22;67165;50.256;10.978;2024-02-26T06:53:49;3.90;98.00
26575;DHT22;67165;50.256;10.978;2024-02-26T06:56:15;3.70;98.00
26575;DHT22;67165;50.256;10.978;2024-02-26T06:58:41;3.70;98.00
26575;DHT22;67165;50.256;10.978;2024-02-26T07:01:11;3.70;98.00
26575;DHT22;67165;50.256;10.978;2024-02-26T07:03:37;3.70;98.00
26575;DHT22;67165;50.256;10.978;2024-02-26T07:06:03;3.80;98.00
26575;DHT22;67165;50.256;10.978;2024-02-26T07:08:29;3.90;98.00
26575;DHT22;67165;50.256;10.978;2024-02-26T07:10:55;3.90;98.00
26575;DHT22;67165;50.256;10.978;2024-02-26T07:13:20;4.00;98.00
26575;DHT22;67165;50.256;10.978;2024-02-26T07:15:46;4.00;98.00
26575;DHT22;67165;50.256;10.978;2024-02-26T07:18:12;4.00;98.00
26575;DHT22;67165;50.256;10.978;2024-02-26T07:20:41;4.00;98.00
26575;DHT22;67165;50.256;10.978;2024-02-26T07:23:06;4.00;98.00
26575;DHT22;67165;50.256;10.978;2024-02-26T07:25:32;4.10;98.00
26575;DHT22;67165;50.256;10.978;2024-02-26T07:28:01;4.10;98.00
26575;DHT22;67165;50.256;10.978;2024-02-26T07:30:26;4.10;98.00
26575;DHT22;67165;50.256;10.978;2024-02-26T07:32:55;4.20;98.00
26575;DHT22;67165;50.256;10.978;2024-02-26T07:35:30;4.20;98.00
26575;DHT22;67165;50.256;10.978;2024-02-26T07:37:56;4.30;98.00
26575;DHT22;67165;50.256;10.978;2024-02-26T07:40:21;4.30;98.00
26575;DHT22;67165;50.256;10.978;2024-02-26T07:42:47;4.30;98.00
26575;DHT22;67165;50.256;10.978;2024-02-26T07:45:13;4.40;98.00
26575;DHT22;67165;50.256;10.978;2024-02-26T07:47:41;4.40;98.00
26575;DHT22;67165;50.256;10.978;2024-02-26T07:50:08;4.50;98.00
26575;DHT22;67165;50.256;10.978;2024-02-26T07:52:36;4.60;98.00
26575;DHT22;67165;50.256;10.978;2024-02-26T07:55:02;4.60;98.00
26575;DHT22;67165;50.256;10.978;2024-02-26T07:57:28;4.70;98.00
26575;DHT22;67165;50.256;10.978;2024-02-26T07:59:53;4.80;98.00
26575;DHT22;67165;50.256;10.978;2024-02-26T08:02:20;4.90;98.00
26575;DHT22;67165;50.256;10.978;2024-02-26T08:04:49;5.00;98.00
26575;DHT22;67165;50.256;10.978;2024-02-26T08:07:24;4.90;98.00
26575;DHT22;67165;50.256;10.978;2024-02-26T08:10:08;4.90;98.00
26575;DHT22;67165;50.256;10.978;2024-02-26T08:12:46;4.90;98.00
26575;DHT22;67165;50.256;10.978;2024-02-26T08:15:26;4.90;98.00
26575;DHT22;67165;50.256;10.978;2024-02-26T08:17:55;5.00;98.00
26575;DHT22;67165;50.256;10.978;2024-02-26T08:20:35;5.10;98.00
26575;DHT22;67165;50.256;10.978;2024-02-26T08:23:01;5.20;98.00
26575;DHT22;67165;50.256;10.978;2024-02-26T08:25:32;5.30;98.00
26575;DHT22;67165;50.256;10.978;2024-02-26T08:28:01;5.40;98.00
26575;DHT22;67165;50.256;10.978;2024-02-26T08:30:30;5.40;98.00
26575;DHT22;67165;50.256;10.978;2024-02-26T08:33:05;5.40;98.00
26575;DHT22;67165;50.256;10.978;2024-02-26T08:35:33;5.30;98.00
26575;DHT22;67165;50.256;10.978;2024-02-26T08:38:02;5.30;98.00
26575;DHT22;67165;50.256;10.978;2024-02-26T08:40:50;5.50;98.00
26575;DHT22;67165;50.256;10.978;2024-02-26T08:43:28;5.50;98.00
26575;DHT22;67165;50.256;10.978;2024-02-26T08:45:54;5.60;98.00
26575;DHT22;67165;50.256;10.978;2024-02-26T08:48:21;5.60;98.00
26575;DHT22;67165;50.256;10.978;2024-02-26T08:50:47;5.60;98.00
26575;DHT22;67165;50.256;10.978;2024-02-26T08:53:13;5.60;98.00
26575;DHT22;67165;50.256;10.978;2024-02-26T08:55:41;5.70;98.00
26575;DHT22;67165;50.256;10.978;2024-02-26T08:58:09;5.70;98.00
26575;DHT22;67165;50.256;10.978;2024-02-26T09:00:35;5.80;98.00
26575;DHT22;67165;50.256;10.978;2024-02-26T09:03:01;5.90;98.00
26575;DHT22;67165;50.256;10.978;2024-02-26T09:05:27;6.10;98.00
26575;DHT22;67165;50.256;10.978;2024-02-26T09:07:52;6.20;98.00
26575;DHT22;67165;50.256;10.978;2024-02-26T09:10:18;6.20;98.00
26575;DHT22;67165;50.256;10.978;2024-02-26T09:12:44;6.20;98.00
26575;DHT22;67165;50.256;10.978;2024-02-26T09:15:10;6.30;98.00
26575;DHT22;67165;50.256;10.978;2024-02-26T09:17:36;6.30;98.00
26575;DHT22;67165;50.256;10.978;2024-02-26T09:20:04;6.40;98.00
26575;DHT22;67165;50.256;10.978;2024-02-26T09:22:31;6.50;98.00
26575;DHT22;67165;50.256;10.978;2024-02-26T09:24:57;6.60;98.00
26575;DHT22;67165;50.256;10.978;2024-02-26T09:27:33;6.60;98.00
26575;DHT22;67165;50.256;10.978;2024-02-26T09:29:58;6.80;98.00
26575;DHT22;67165;50.256;10.978;2024-02-26T09:32:24;6.80;98.00
26575;DHT22;67165;50.256;10.978;2024-02-26T09:34:50;6.90;98.00
26575;DHT22;67165;50.256;10.978;2024-02-26T09:37:16;7.10;98.00
26575;DHT22;67165;50.256;10.978;2024-02-26T09:39:42;7.20;98.00
26575;DHT22;67165;50.256;10.978;2024-02-26T09:42:09;7.30;98.00
26575;DHT22;67165;50.256;10.978;2024-02-26T09:44:40;7.30;98.00
26575;DHT22;67165;50.256;10.978;2024-02-26T09:47:10;7.40;98.00
26575;DHT22;67165;50.256;10.978;2024-02-26T09:49:37;7.60;98.00
26575;DHT22;67165;50.256;10.978;2024-02-26T09:52:05;7.70;98.00
26575;DHT22;67165;50.256;10.978;2024-02-26T09:54:32;7.70;98.00
26575;DHT22;67165;50.256;10.978;2024-02-26T09:57:03;7.90;98.00
26575;DHT22;67165;50.256;10.978;2024-02-26T09:59:38;8.00;98.00
26575;DHT22;67165;50.256;10.978;2024-02-26T10:02:16;8.00;98.00
26575;DHT22;67165;50.256;10.978;2024-02-26T10:04:43;7.80;98.00
26575;DHT22;67165;50.256;10.978;2024-02-26T10:07:11;7.70;98.00
26575;DHT22;67165;50.256;10.978;2024-02-26T10:09:37;7.80;98.00
26575;DHT22;67165;50.256;10.978;2024-02-26T10:12:06;7.90;98.00
26575;DHT22;67165;50.256;10.978;2024-02-26T10:14:33;7.90;98.00
26575;DHT22;67165;50.256;10.978;2024-02-26T10:16:59;7.90;98.00
26575;DHT22;67165;50.256;10.978;2024-02-26T10:19:30;8.00;98.00
26575;DHT22;67165;50.256;10.978;2024-02-26T10:21:57;8.00;98.00
26575;DHT22;67165;50.256;10.978;2024-02-26T10:24:27;8.00;98.00
26575;DHT22;67165;50.256;10.978;2024-02-26T10:26:54;8.10;98.00
26575;DHT22;67165;50.256;10.978;2024-02-26T10:29:21;8.10;98.00
26575;DHT22;67165;50.256;10.978;2024-02-26T10:31:47;8.20;98.00
26575;DHT22;67165;50.256;10.978;2024-02-26T10:34:17;8.40;98.00
26575;DHT22;67165;50.256;10.978;2024-02-26T10:36:51;8.40;98.00
26575;DHT22;67165;50.256;10.978;2024-02-26T10:39:16;8.50;98.00
26575;DHT22;67165;50.256;10.978;2024-02-26T10:41:43;8.40;98.00
26575;DHT22;67165;50.256;10.978;2024-02-26T10:44:10;8.40;98.00
26575;DHT22;67165;50.256;10.978;2024-02-26T10:46:37;8.40;98.00
26575;DHT22;67165;50.256;10.978;2024-02-26T10:49:04;8.50;98.00
26575;DHT22;67165;50.256;10.978;2024-02-26T10:51:32;8.50;98.00
26575;DHT22;67165;50.256;10.978;2024-02-26T10:54:00;8.70;98.00
26575;DHT22;67165;50.256;10.978;2024-02-26T10:56:28;8.80;98.00
26575;DHT22;67165;50.256;10.978;2024-02-26T10:58:58;9.00;98.00
26575;DHT22;67165;50.256;10.978;2024-02-26T11:01:24;9.10;98.00
26575;DHT22;67165;50.256;10.978;2024-02-26T11:03:52;9.20;98.00
26575;DHT22;67165;50.256;10.978;2024-02-26T11:06:19;9.20;98.00
26575;DHT22;67165;50.256;10.978;2024-02-26T11:08:55;9.30;98.00
26575;DHT22;67165;50.256;10.978;2024-02-26T11:11:22;9.50;98.00
26575;DHT22;67165;50.256;10.978;2024-02-26T11:13:48;9.60;98.00
26575;DHT22;67165;50.256;10.978;2024-02-26T11:16:21;9.70;98.00
26575;DHT22;67165;50.256;10.978;2024-02-26T11:18:48;9.70;98.00
26575;DHT22;67165;50.256;10.978;2024-02-26T11:21:19;9.50;98.00
26575;DHT22;67165;50.256;10.978;2024-02-26T11:23:48;9.50;98.00
26575;DHT22;67165;50.256;10.978;2024-02-26T11:26:17;9.50;98.00
26575;DHT22;67165;50.256;10.978;2024-02-26T11:28:47;9.60;98.00
26575;DHT22;67165;50.256;10.978;2024-02-26T11:31:16;9.60;98.00
26575;DHT22;67165;50.256;10.978;2024-02-26T11:33:52;9.70;98.00
26575;DHT22;67165;50.256;10.978;2024-02-26T11:36:18;9.90;98.00
26575;DHT22;67165;50.256;10.978;2024-02-26T11:38:46;9.80;98.00
26575;DHT22;67165;50.256;10.978;2024-02-26T11:41:20;9.90;98.00
26575;DHT22;67165;50.256;10.978;2024-02-26T11:43:59;10.10;98.00
26575;DHT22;67165;50.256;10.978;2024-02-26T11:46:30;10.10;98.00
26575;DHT22;67165;50.256;10.978;2024-02-26T11:49:01;10.20;98.00
26575;DHT22;67165;50.256;10.978;2024-02-26T11:51:32;10.30;98.00
26575;DHT22;67165;50.256;10.978;2024-02-26T11:53:59;10.40;98.00
26575;DHT22;67165;50.256;10.978;2024-02-26T11:56:34;10.50;98.00
26575;DHT22;67165;50.256;10.978;2024-02-26T11:59:08;10.50;98.00
26575;DHT22;67165;50.256;10.978;2024-02-26T12:01:48;10.40;98.00
26575;DHT22;67165;50.256;10.978;2024-02-26T12:04:21;10.40;98.00
26575;DHT22;67165;50.256;10.978;2024-02-26T12:06:52;10.30;98.00
26575;DHT22;67165;50.256;10.978;2024-02-26T12:09:41;10.40;98.00
26575;DHT22;67165;50.256;10.978;2024-02-26T12:12:10;10.40;98.00
26575;DHT22;67165;50.256;10.978;2024-02-26T12:14:40;10.50;98.00
26575;DHT22;67165;50.256;10.978;2024-02-26T12:17:20;10.40;98.00
26575;DHT22;67165;50.256;10.978;2024-02-26T12:19:46;10.50;98.00
26575;DHT22;67165;50.256;10.978;2024-02-26T12:22:16;10.70;98.00
26575;DHT22;67165;50.256;10.978;2024-02-26T12:24:44;10.60;98.00
26575;DHT22;67165;50.256;10.978;2024-02-26T12:27:10;10.60;98.00
26575;DHT22;67165;50.256;10.978;2024-02-26T12:29:48;10.50;98.00
26575;DHT22;67165;50.256;10.978;2024-02-26T12:32:16;10.50;98.00
26575;DHT22;67165;50.256;10.978;2024-02-26T12:34:45;10.60;98.00
26575;DHT22;67165;50.256;10.978;2024-02-26T12:37:11;10.70;98.00
26575;DHT22;67165;50.256;10.978;2024-02-26T12:39:38;10.70;98.00
26575;DHT22;67165;50.256;10.978;2024-02-26T12:42:04;10.50;98.00
26575;DHT22;67165;50.256;10.978;2024-02-26T12:44:31;10.60;98.00
26575;DHT22;67165;50.256;10.978;2024-02-26T12:47:06;10.60;98.00
26575;DHT22;67165;50.256;10.978;2024-02-26T12:49:31;10.60;98.00
26575;DHT22;67165;50.256;10.978;2024-02-26T12:51:57;10.70;98.00
26575;DHT22;67165;50.256;10.978;2024-02-26T12:54:33;10.60;98.00
26575;DHT22;67165;50.256;10.978;2024-02-26T12:57:05;10.70;98.00
26575;DHT22;67165;50.256;10.978;2024-02-26T12:59:33;10.80;98.00
26575;DHT22;67165;50.256;10.978;2024-02-26T13:02:05;10.90;98.00
26575;DHT22;67165;50.256;10.978;2024-02-26T13:04:31;11.10;98.00
26575;DHT22;67165;50.256;10.978;2024-02-26T13:06:57;11.10;98.00
26575;DHT22;67165;50.256;10.978;2024-02-26T13:09:30;11.20;98.00
26575;DHT22;67165;50.256;10.978;2024-02-26T13:11:57;11.30;98.00
26575;DHT22;67165;50.256;10.978;2024-02-26T13:14:33;11.30;98.00
26575;DHT22;67165;50.256;10.978;2024-02-26T13:17:03;11.40;98.00
26575;DHT22;67165;50.256;10.978;2024-02-26T13:19:32;11.40;98.00
26575;DHT22;67165;50.256;10.978;2024-02-26T13:22:05;11.30;98.00
26575;DHT22;67165;50.256;10.978;2024-02-26T13:24:33;11.20;98.00
26575;DHT22;67165;50.256;10.978;2024-02-26T13:26:58;11.30;98.00
26575;DHT22;67165;50.256;10.978;2024-02-26T13:29:27;11.30;98.00
26575;DHT22;67165;50.256;10.978;2024-02-26T13:31:57;11.40;98.00
26575;DHT22;67165;50.256;10.978;2024-02-26T13:34:27;11.30;98.00
26575;DHT22;67165;50.256;10.978;2024-02-26T13:36:54;11.30;98.00
26575;DHT22;67165;50.256;10.978;2024-02-26T13:39:27;11.40;98.00
26575;DHT22;67165;50.256;10.978;2024-02-26T13:41:54;11.40;98.00
26575;DHT22;67165;50.256;10.978;2024-02-26T13:44:21;11.40;98.00
26575;DHT22;67165;50.256;10.978;2024-02-26T13:46:50;11.50;98.00
26575;DHT22;67165;50.256;10.978;2024-02-26T13:49:16;11.40;98.00
26575;DHT22;67165;50.256;10.978;2024-02-26T13:51:44;11.50;98.00
26575;DHT22;67165;50.256;10.978;2024-02-26T13:54:10;11.30;98.00
26575;DHT22;67165;50.256;10.978;2024-02-26T13:56:36;11.20;98.00
26575;DHT22;67165;50.256;10.978;2024-02-26T13:59:02;11.20;98.00
26575;DHT22;67165;50.256;10.978;2024-02-26T14:01:31;11.20;98.00
26575;DHT22;67165;50.256;10.978;2024-02-26T14:03:59;11.10;98.00
26575;DHT22;67165;50.256;10.978;2024-02-26T14:06:27;11.20;98.00
26575;DHT22;67165;50.256;10.978;2024-02-26T14:08:53;11.30;98.00
26575;DHT22;67165;50.256;10.978;2024-02-26T14:11:22;11.40;98.00
26575;DHT22;67165;50.256;10.978;2024-02-26T14:13:51;11.50;98.00
26575;DHT22;67165;50.256;10.978;2024-02-26T14:16:16;11.50;98.00
26575;DHT22;67165;50.256;10.978;2024-02-26T14:18:45;11.60;98.00
26575;DHT22;67165;50.256;10.978;2024-02-26T14:21:12;11.40;98.00
26575;DHT22;67165;50.256;10.978;2024-02-26T14:23:39;11.50;98.00
26575;DHT22;67165;50.256;10.978;2024-02-26T14:26:05;11.40;98.00
26575;DHT22;67165;50.256;10.978;2024-02-26T14:28:34;11.40;98.00
26575;DHT22;67165;50.256;10.978;2024-02-26T14:31:00;11.40;98.00
26575;DHT22;67165;50.256;10.978;2024-02-26T14:33:26;11.50;98.00
26575;DHT22;67165;50.256;10.978;2024-02-26T14:35:52;11.50;98.00
26575;DHT22;67165;50.256;10.978;2024-02-26T14:38:17;11.60;98.00
26575;DHT22;67165;50.256;10.978;2024-02-26T14:40:43;11.60;98.00
26575;DHT22;67165;50.256;10.978;2024-02-26T14:43:09;11.50;98.00
26575;DHT22;67165;50.256;10.978;2024-02-26T14:45:36;11.50;98.00
26575;DHT22;67165;50.256;10.978;2024-02-26T14:48:01;11.50;98.00
26575;DHT22;67165;50.256;10.978;2024-02-26T14:50:30;11.60;98.00
26575;DHT22;67165;50.256;10.978;2024-02-26T14:52:56;11.50;98.00
26575;DHT22;67165;50.256;10.978;2024-02-26T14:55:22;11.50;98.00
26575;DHT22;67165;50.256;10.978;2024-02-26T14:57:48;11.40;98.00
26575;DHT22;67165;50.256;10.978;2024-02-26T15:00:14;11.30;98.00
26575;DHT22;67165;50.256;10.978;2024-02-26T15:02:42;11.30;98.00
26575;DHT22;67165;50.256;10.978;2024-02-26T15:05:08;11.20;98.00
26575;DHT22;67165;50.256;10.978;2024-02-26T15:07:36;11.10;98.00
26575;DHT22;67165;50.256;10.978;2024-02-26T15:10:08;11.10;98.00
26575;DHT22;67165;50.256;10.978;2024-02-26T15:12:34;11.00;98.00
26575;DHT22;67165;50.256;10.978;2024-02-26T15:14:59;11.10;98.00
26575;DHT22;67165;50.256;10.978;2024-02-26T15:17:26;11.00;98.00
26575;DHT22;67165;50.256;10.978;2024-02-26T15:20:01;10.90;98.00
26575;DHT22;67165;50.256;10.978;2024-02-26T15:22:27;10.90;98.00
26575;DHT22;67165;50.256;10.978;2024-02-26T15:24:53;10.90;98.00
26575;DHT22;67165;50.256;10.978;2024-02-26T15:27:19;10.90;98.00
26575;DHT22;67165;50.256;10.978;2024-02-26T15:29:45;10.90;98.00
26575;DHT22;67165;50.256;10.978;2024-02-26T15:32:11;10.90;98.00